Time;durP1;ratioP1;P1;durP2;ratioP2;P2;SDS_P1;SDS_P2;PMS_P1;PMS_P2;Temp;Humidity;BMP_temperature;BMP_pressure;BME280_temperature;BME280_humidity;BME280_pressure;Samples;Min_cycle;Max_cycle;Signal;HPM_P1;HPM_P2
2022/01/10 00:00:52;;;;;;;0.68;0.50;;;;;;;;;;5052319;28;20021;-65
2022/01/10 00:03:17;;;;;;;0.85;0.28;;;;;;;;;;5052121;28;20372;-64
2022/01/10 00:05:42;;;;;;;0.73;0.32;;;;;;;;;;5052117;28;20049;-63
2022/01/10 00:08:08;;;;;;;0.80;0.20;;;;;;;;;;5052092;28;20029;-65
2022/01/10 00:10:33;;;;;;;0.55;0.20;;;;;;;;;;5052029;28;20025;-64
2022/01/10 00:12:58;;;;;;;1.75;0.20;;;;;;;;;;5052075;28;20029;-64
2022/01/10 00:15:24;;;;;;;0.60;0.30;;;;;;;;;;5052077;28;20029;-63
2022/01/10 00:17:49;;;;;;;0.95;0.40;;;;;;;;;;5052198;28;20333;-64
2022/01/10 00:20:15;;;;;;;0.73;0.20;;;;;;;;;;5052503;28;20017;-65
2022/01/10 00:22:45;;;;;;;0.90;0.40;;;;;;;;;;5052065;28;20032;-64
2022/01/10 00:25:11;;;;;;;0.88;0.20;;;;;;;;;;5051882;28;20024;-65
2022/01/10 00:27:36;;;;;;;0.85;0.38;;;;;;;;;;5052135;28;20453;-63
2022/01/10 00:30:01;;;;;;;0.60;0.20;;;;;;;;;;5051933;28;20062;-64
2022/01/10 00:32:26;;;;;;;0.50;0.30;;;;;;;;;;5052022;28;20475;-64
2022/01/10 00:34:52;;;;;;;0.65;0.28;;;;;;;;;;5055809;28;20040;-64
2022/01/10 00:37:17;;;;;;;2.28;0.40;;;;;;;;;;5055850;28;20013;-64
2022/01/10 00:39:42;;;;;;;0.60;0.28;;;;;;;;;;5055956;28;20044;-64
2022/01/10 00:42:08;;;;;;;0.93;0.40;;;;;;;;;;5055672;28;20021;-63
2022/01/10 00:44:38;;;;;;;0.25;0.20;;;;;;;;;;5055769;28;20315;-63
2022/01/10 00:47:03;;;;;;;1.33;0.32;;;;;;;;;;5055577;28;20067;-63
2022/01/10 00:49:28;;;;;;;1.88;0.20;;;;;;;;;;5055714;28;20025;-64
2022/01/10 00:51:54;;;;;;;1.13;0.30;;;;;;;;;;5055633;28;20032;-63
2022/01/10 00:54:19;;;;;;;0.60;0.20;;;;;;;;;;5055415;28;20040;-64
2022/01/10 00:56:44;;;;;;;0.30;0.30;;;;;;;;;;5055595;28;20260;-64
2022/01/10 00:59:09;;;;;;;1.77;0.65;;;;;;;;;;5055355;28;20028;-64
2022/01/10 01:01:34;;;;;;;0.35;0.20;;;;;;;;;;5055769;28;20056;-65
2022/01/10 01:03:59;;;;;;;1.60;0.50;;;;;;;;;;5055120;28;20025;-64
2022/01/10 01:06:25;;;;;;;0.67;0.30;;;;;;;;;;5055230;28;20292;-64
2022/01/10 01:08:50;;;;;;;0.50;0.30;;;;;;;;;;5055318;28;20258;-64
2022/01/10 01:13:52;;;;;;;1.33;0.40;;;;;;;;;;5055293;28;20025;-66
2022/01/10 01:16:30;;;;;;;1.20;0.45;;;;;;;;;;5055098;28;20029;-65
2022/01/10 01:19:11;;;;;;;0.82;0.40;;;;;;;;;;5055030;28;20017;-65
2022/01/10 01:24:20;;;;;;;0.98;0.20;;;;;;;;;;5055171;28;20142;-64
2022/01/10 01:26:47;;;;;;;0.40;0.28;;;;;;;;;;5055207;28;20468;-64
2022/01/10 01:29:15;;;;;;;1.05;0.47;;;;;;;;;;5053519;28;20177;-64
2022/01/10 01:31:40;;;;;;;0.60;0.28;;;;;;;;;;5054985;28;20024;-65
2022/01/10 01:34:06;;;;;;;0.25;0.10;;;;;;;;;;5054638;28;20195;-63
2022/01/10 01:36:32;;;;;;;1.30;0.40;;;;;;;;;;5054779;28;20879;-65
2022/01/10 01:38:58;;;;;;;1.30;0.50;;;;;;;;;;5054718;28;20372;-66
2022/01/10 01:43:49;;;;;;;1.25;0.30;;;;;;;;;;5054794;28;20055;-65
2022/01/10 01:46:14;;;;;;;1.90;0.60;;;;;;;;;;5054399;28;20048;-64
2022/01/10 01:48:39;;;;;;;1.55;0.32;;;;;;;;;;5054635;28;20479;-65
2022/01/10 01:51:05;;;;;;;1.50;0.33;;;;;;;;;;5054398;28;20429;-64
2022/01/10 01:53:33;;;;;;;0.82;0.50;;;;;;;;;;5054551;28;20333;-64
2022/01/10 01:55:58;;;;;;;1.50;0.32;;;;;;;;;;5054268;28;20021;-64
2022/01/10 01:58:24;;;;;;;0.70;0.30;;;;;;;;;;5054291;28;20051;-64
2022/01/10 02:00:50;;;;;;;2.20;0.50;;;;;;;;;;5054384;28;20017;-64
2022/01/10 02:03:15;;;;;;;0.60;0.20;;;;;;;;;;5054391;28;20067;-65
2022/01/10 02:05:40;;;;;;;0.27;0.20;;;;;;;;;;5054216;28;20045;-64
2022/01/10 02:08:05;;;;;;;0.50;0.10;;;;;;;;;;5054078;28;20322;-64
2022/01/10 02:10:30;;;;;;;0.80;0.30;;;;;;;;;;5054096;28;20029;-63
2022/01/10 02:12:56;;;;;;;1.10;0.30;;;;;;;;;;5054026;28;20292;-64
2022/01/10 02:15:33;;;;;;;1.65;0.30;;;;;;;;;;5052642;28;20025;-65
2022/01/10 02:18:00;;;;;;;0.88;0.20;;;;;;;;;;5053950;28;20020;-65
2022/01/10 02:20:27;;;;;;;0.40;0.20;;;;;;;;;;5054201;28;20456;-64
2022/01/10 02:22:52;;;;;;;2.30;0.68;;;;;;;;;;5053723;28;20029;-63
2022/01/10 02:25:17;;;;;;;2.57;0.57;;;;;;;;;;5053788;28;20484;-65
2022/01/10 02:27:45;;;;;;;0.90;0.30;;;;;;;;;;5053905;28;20139;-65
2022/01/10 02:30:10;;;;;;;1.40;0.43;;;;;;;;;;5053622;28;20029;-64
2022/01/10 02:32:35;;;;;;;0.80;0.30;;;;;;;;;;5053720;28;20031;-64
2022/01/10 02:35:00;;;;;;;0.80;0.55;;;;;;;;;;5053500;28;20277;-63
2022/01/10 02:37:35;;;;;;;1.13;0.30;;;;;;;;;;5053717;28;20056;-64
2022/01/10 02:40:06;;;;;;;1.33;0.25;;;;;;;;;;5053779;28;20721;-64
2022/01/10 02:42:32;;;;;;;0.65;0.30;;;;;;;;;;5053517;28;20456;-63
2022/01/10 02:44:57;;;;;;;0.25;0.20;;;;;;;;;;5052175;28;20095;-64
2022/01/10 02:47:22;;;;;;;0.40;0.20;;;;;;;;;;5053488;28;20095;-65
2022/01/10 02:49:48;;;;;;;0.65;0.10;;;;;;;;;;5053468;28;20250;-64
2022/01/10 02:52:13;;;;;;;0.40;0.20;;;;;;;;;;5053562;28;20043;-65
2022/01/10 02:54:38;;;;;;;1.08;0.20;;;;;;;;;;5053295;28;20021;-64
2022/01/10 02:57:04;;;;;;;0.67;0.17;;;;;;;;;;5052520;28;20021;-64
2022/01/10 02:59:29;;;;;;;0.73;0.28;;;;;;;;;;5053208;28;20254;-64
2022/01/10 03:01:55;;;;;;;1.83;0.23;;;;;;;;;;5053178;28;20024;-64
2022/01/10 03:04:20;;;;;;;1.45;0.30;;;;;;;;;;5052904;28;20278;-63
2022/01/10 03:06:46;;;;;;;1.40;0.40;;;;;;;;;;5053138;28;20108;-64
2022/01/10 03:09:11;;;;;;;1.23;0.30;;;;;;;;;;5052867;28;20380;-63
2022/01/10 03:11:37;;;;;;;0.30;0.17;;;;;;;;;;5053023;28;20017;-63
2022/01/10 03:14:03;;;;;;;1.23;0.20;;;;;;;;;;5051520;28;20025;-63
2022/01/10 03:16:28;;;;;;;1.67;0.20;;;;;;;;;;5052850;28;20017;-65
2022/01/10 03:18:53;;;;;;;1.02;0.20;;;;;;;;;;5051619;28;20031;-66
2022/01/10 03:21:21;;;;;;;1.13;0.20;;;;;;;;;;5052880;28;20024;-65
2022/01/10 03:23:47;;;;;;;0.35;0.20;;;;;;;;;;5052936;28;20713;-65
2022/01/10 03:26:12;;;;;;;0.45;0.20;;;;;;;;;;5052560;28;20035;-64
2022/01/10 03:28:37;;;;;;;0.80;0.20;;;;;;;;;;5052744;28;20075;-63
2022/01/10 03:31:03;;;;;;;0.43;0.13;;;;;;;;;;5051621;28;20116;-64
2022/01/10 03:33:28;;;;;;;0.87;0.30;;;;;;;;;;5052671;28;20246;-65
2022/01/10 03:35:53;;;;;;;0.87;0.30;;;;;;;;;;5051294;28;20301;-65
2022/01/10 03:38:18;;;;;;;0.80;0.38;;;;;;;;;;5052412;28;20246;-64
2022/01/10 03:40:43;;;;;;;1.55;0.30;;;;;;;;;;5052619;28;20040;-64
2022/01/10 03:43:09;;;;;;;0.22;0.10;;;;;;;;;;5052418;28;20104;-63
2022/01/10 03:45:34;;;;;;;1.30;0.30;;;;;;;;;;5052510;28;20036;-65
2022/01/10 03:47:59;;;;;;;0.55;0.20;;;;;;;;;;5052601;28;20170;-65
2022/01/10 03:50:24;;;;;;;0.93;0.30;;;;;;;;;;5052401;28;20040;-65
2022/01/10 03:52:50;;;;;;;0.40;0.13;;;;;;;;;;5052452;28;20254;-65
2022/01/10 03:55:15;;;;;;;0.70;0.20;;;;;;;;;;5052207;28;20727;-65
2022/01/10 03:57:40;;;;;;;1.90;0.50;;;;;;;;;;5052395;28;20266;-65
2022/01/10 04:00:06;;;;;;;1.27;0.30;;;;;;;;;;5052188;28;20241;-64
2022/01/10 04:02:33;;;;;;;0.47;0.28;;;;;;;;;;5052347;28;20095;-64
2022/01/10 04:04:58;;;;;;;1.80;0.40;;;;;;;;;;5051947;28;20504;-65
2022/01/10 04:07:23;;;;;;;0.97;0.20;;;;;;;;;;5054018;28;20032;-64
2022/01/10 04:09:48;;;;;;;0.80;0.13;;;;;;;;;;5056497;28;20337;-64
2022/01/10 04:12:14;;;;;;;1.27;0.40;;;;;;;;;;5054998;28;20017;-64
2022/01/10 04:14:39;;;;;;;2.67;0.32;;;;;;;;;;5056579;28;20027;-65
2022/01/10 04:17:04;;;;;;;1.03;0.20;;;;;;;;;;5056204;28;20021;-65
2022/01/10 04:19:29;;;;;;;0.90;0.52;;;;;;;;;;5056324;28;20805;-64
2022/01/10 04:21:54;;;;;;;1.52;0.20;;;;;;;;;;5056158;28;20029;-65
2022/01/10 04:24:19;;;;;;;0.50;0.30;;;;;;;;;;5054744;28;20036;-65
2022/01/10 04:26:45;;;;;;;2.05;0.30;;;;;;;;;;5056226;28;20337;-64
2022/01/10 04:29:10;;;;;;;0.50;0.20;;;;;;;;;;5055977;28;20025;-65
2022/01/10 04:31:35;;;;;;;0.73;0.30;;;;;;;;;;5056116;28;20728;-65
2022/01/10 04:34:00;;;;;;;0.67;0.60;;;;;;;;;;5055761;28;20294;-64
2022/01/10 04:36:25;;;;;;;0.70;0.17;;;;;;;;;;5056161;28;20313;-66
2022/01/10 04:38:50;;;;;;;0.30;0.22;;;;;;;;;;5055919;28;20277;-64
2022/01/10 04:41:16;;;;;;;0.30;0.10;;;;;;;;;;5055794;28;20049;-64
2022/01/10 04:43:41;;;;;;;0.40;0.20;;;;;;;;;;5055935;28;20032;-64
2022/01/10 04:46:06;;;;;;;0.10;0.10;;;;;;;;;;5055631;28;20354;-65
2022/01/10 04:48:31;;;;;;;0.40;0.30;;;;;;;;;;5055716;28;20479;-66
2022/01/10 04:51:12;;;;;;;0.43;0.30;;;;;;;;;;5055625;28;20449;-65
2022/01/10 04:53:38;;;;;;;1.10;0.30;;;;;;;;;;5055664;28;20026;-64
2022/01/10 04:56:04;;;;;;;0.63;0.15;;;;;;;;;;5055388;28;20021;-65
2022/01/10 04:58:29;;;;;;;0.40;0.20;;;;;;;;;;5055761;28;20350;-65
2022/01/10 05:00:55;;;;;;;1.75;0.50;;;;;;;;;;5055445;28;20017;-64
2022/01/10 05:03:20;;;;;;;0.73;0.20;;;;;;;;;;5055434;28;20020;-64
2022/01/10 05:05:46;;;;;;;0.25;0.20;;;;;;;;;;5055413;28;20566;-64
2022/01/10 05:08:12;;;;;;;1.17;0.28;;;;;;;;;;5055216;28;20020;-64
2022/01/10 05:10:37;;;;;;;0.77;0.30;;;;;;;;;;5055260;28;20518;-65
2022/01/10 05:13:02;;;;;;;0.22;0.10;;;;;;;;;;5055169;28;20017;-64
2022/01/10 05:15:27;;;;;;;0.70;0.38;;;;;;;;;;5055246;28;20072;-65
2022/01/10 05:17:52;;;;;;;0.30;0.20;;;;;;;;;;5053927;28;20071;-64
2022/01/10 05:20:18;;;;;;;1.70;0.40;;;;;;;;;;5054710;28;20092;-64
2022/01/10 05:22:43;;;;;;;1.93;0.43;;;;;;;;;;5055123;28;20072;-64
2022/01/10 05:25:08;;;;;;;0.73;0.22;;;;;;;;;;5054894;28;20308;-64
2022/01/10 05:27:33;;;;;;;0.50;0.10;;;;;;;;;;5055018;28;20032;-65
2022/01/10 05:29:58;;;;;;;0.50;0.10;;;;;;;;;;5054919;28;20054;-64
2022/01/10 05:32:23;;;;;;;0.95;0.30;;;;;;;;;;5054880;28;20254;-64
2022/01/10 05:34:49;;;;;;;0.32;0.10;;;;;;;;;;5053540;28;20028;-64
2022/01/10 05:37:14;;;;;;;0.80;0.23;;;;;;;;;;5054728;28;20044;-64
2022/01/10 05:39:39;;;;;;;1.50;0.30;;;;;;;;;;5054827;28;20242;-64
2022/01/10 05:42:04;;;;;;;1.70;0.45;;;;;;;;;;5054600;28;20055;-65
2022/01/10 05:44:30;;;;;;;0.95;0.38;;;;;;;;;;5054633;28;20465;-64
2022/01/10 05:46:55;;;;;;;0.73;0.17;;;;;;;;;;5054482;28;20151;-64
2022/01/10 05:49:26;;;;;;;0.80;0.32;;;;;;;;;;5054569;28;20024;-64
2022/01/10 05:51:51;;;;;;;0.88;0.30;;;;;;;;;;5054550;28;20073;-64
2022/01/10 05:54:17;;;;;;;2.60;0.28;;;;;;;;;;5054346;28;20415;-64
2022/01/10 05:56:42;;;;;;;1.07;0.17;;;;;;;;;;5054534;28;20416;-63
2022/01/10 05:59:07;;;;;;;0.57;0.40;;;;;;;;;;5054523;28;20321;-63
2022/01/10 06:01:32;;;;;;;1.20;0.37;;;;;;;;;;5054445;28;20020;-64
2022/01/10 06:03:57;;;;;;;0.95;0.20;;;;;;;;;;5053947;28;20472;-64
2022/01/10 06:06:22;;;;;;;0.73;0.23;;;;;;;;;;5054181;28;20112;-63
2022/01/10 06:08:48;;;;;;;1.27;0.13;;;;;;;;;;5054234;28;20250;-64
2022/01/10 06:11:14;;;;;;;0.87;0.40;;;;;;;;;;5054078;28;20060;-64
2022/01/10 06:13:39;;;;;;;1.13;0.10;;;;;;;;;;5054174;28;20601;-63
2022/01/10 06:16:05;;;;;;;0.63;0.20;;;;;;;;;;5053923;28;20021;-63
2022/01/10 06:18:30;;;;;;;1.13;0.10;;;;;;;;;;5054006;28;20033;-63
2022/01/10 06:20:56;;;;;;;1.13;0.20;;;;;;;;;;5053946;28;20099;-65
2022/01/10 06:23:21;;;;;;;0.52;0.40;;;;;;;;;;5053953;28;20303;-65
2022/01/10 06:25:46;;;;;;;0.70;0.30;;;;;;;;;;5054225;28;20453;-64
2022/01/10 06:28:11;;;;;;;0.80;0.22;;;;;;;;;;5053739;28;20377;-64
2022/01/10 06:30:36;;;;;;;0.40;0.23;;;;;;;;;;5052753;28;20028;-64
2022/01/10 06:33:02;;;;;;;0.73;0.30;;;;;;;;;;5053628;28;20253;-65
2022/01/10 06:35:27;;;;;;;1.50;0.30;;;;;;;;;;5053662;28;20361;-64
2022/01/10 06:37:52;;;;;;;0.65;0.22;;;;;;;;;;5052401;28;20253;-63
2022/01/10 06:40:18;;;;;;;0.57;0.25;;;;;;;;;;5053550;28;20486;-65
2022/01/10 06:42:43;;;;;;;0.73;0.20;;;;;;;;;;5053696;28;20432;-63
2022/01/10 06:45:09;;;;;;;0.85;0.30;;;;;;;;;;5053385;28;20021;-63
2022/01/10 06:47:34;;;;;;;2.22;0.30;;;;;;;;;;5053591;28;20767;-65
2022/01/10 06:49:59;;;;;;;1.10;0.43;;;;;;;;;;5053389;28;20025;-64
2022/01/10 06:52:25;;;;;;;1.07;0.20;;;;;;;;;;5052039;28;20575;-64
2022/01/10 06:54:50;;;;;;;1.55;0.20;;;;;;;;;;5053296;28;20277;-64
2022/01/10 06:57:15;;;;;;;0.37;0.30;;;;;;;;;;5053189;28;20025;-64
2022/01/10 06:59:40;;;;;;;1.15;0.30;;;;;;;;;;5053324;28;20265;-65
2022/01/10 07:02:05;;;;;;;0.70;0.20;;;;;;;;;;5053133;28;20020;-65
2022/01/10 07:04:32;;;;;;;1.97;0.37;;;;;;;;;;5052954;28;20278;-65
2022/01/10 07:06:57;;;;;;;1.30;0.63;;;;;;;;;;5053018;28;20017;-64
2022/01/10 07:09:23;;;;;;;0.57;0.20;;;;;;;;;;5053093;28;20388;-65
2022/01/10 07:11:48;;;;;;;0.70;0.20;;;;;;;;;;5053114;28;20207;-64
2022/01/10 07:14:14;;;;;;;0.77;0.20;;;;;;;;;;5052754;28;20426;-64
2022/01/10 07:16:40;;;;;;;0.60;0.28;;;;;;;;;;5053033;28;20645;-64
2022/01/10 07:19:07;;;;;;;1.88;0.20;;;;;;;;;;5052788;28;20017;-63
2022/01/10 07:21:33;;;;;;;0.68;0.35;;;;;;;;;;5052907;28;20021;-64
2022/01/10 07:23:59;;;;;;;0.47;0.17;;;;;;;;;;5051033;28;20112;-65
2022/01/10 07:26:25;;;;;;;2.73;0.17;;;;;;;;;;5047025;28;20023;-64
2022/01/10 07:28:50;;;;;;;0.70;0.20;;;;;;;;;;5048272;28;20265;-64
2022/01/10 07:31:15;;;;;;;0.93;0.20;;;;;;;;;;5053375;28;20036;-65
2022/01/10 07:33:40;;;;;;;0.68;0.28;;;;;;;;;;5064916;28;20035;-65
2022/01/10 07:36:06;;;;;;;1.20;0.30;;;;;;;;;;5072265;28;20099;-64
2022/01/10 07:38:35;;;;;;;0.35;0.10;;;;;;;;;;5065188;28;20249;-65
2022/01/10 07:41:01;;;;;;;0.40;0.20;;;;;;;;;;5070430;28;20019;-65
2022/01/10 07:43:26;;;;;;;1.05;0.10;;;;;;;;;;5071431;28;20067;-65
2022/01/10 07:45:51;;;;;;;0.35;0.10;;;;;;;;;;5057394;28;20056;-65
2022/01/10 07:48:18;;;;;;;0.73;0.50;;;;;;;;;;5068447;28;20025;-64
2022/01/10 07:50:43;;;;;;;0.77;0.30;;;;;;;;;;5067972;28;20332;-64
2022/01/10 07:53:08;;;;;;;1.08;0.20;;;;;;;;;;5057226;28;20112;-64
2022/01/10 07:55:34;;;;;;;0.13;0.00;;;;;;;;;;5063879;28;20499;-64
2022/01/10 07:57:59;;;;;;;0.57;0.20;;;;;;;;;;5055908;28;20341;-64
2022/01/10 08:00:24;;;;;;;0.38;0.10;;;;;;;;;;5067047;28;20245;-64
2022/01/10 08:02:49;;;;;;;0.95;0.32;;;;;;;;;;5052966;28;20048;-65
2022/01/10 08:05:14;;;;;;;0.47;0.20;;;;;;;;;;5048692;28;20124;-65
2022/01/10 08:07:39;;;;;;;0.70;0.20;;;;;;;;;;5058445;28;20033;-64
2022/01/10 08:10:05;;;;;;;1.40;0.43;;;;;;;;;;5071893;28;20031;-64
2022/01/10 08:12:30;;;;;;;0.68;0.22;;;;;;;;;;5057614;28;20128;-63
2022/01/10 08:14:56;;;;;;;0.55;0.10;;;;;;;;;;5054723;28;20040;-64
2022/01/10 08:17:21;;;;;;;1.30;0.20;;;;;;;;;;5039916;28;20021;-63
2022/01/10 08:19:46;;;;;;;0.60;0.20;;;;;;;;;;5032086;28;20477;-64
2022/01/10 08:22:11;;;;;;;0.40;0.10;;;;;;;;;;5050566;28;20259;-64
2022/01/10 08:24:36;;;;;;;0.47;0.20;;;;;;;;;;5050073;28;20554;-64
2022/01/10 08:27:02;;;;;;;0.40;0.10;;;;;;;;;;5049828;28;20029;-65
2022/01/10 08:29:29;;;;;;;0.95;0.20;;;;;;;;;;5051776;28;20032;-65
2022/01/10 08:31:54;;;;;;;1.33;0.50;;;;;;;;;;5051246;28;20063;-64
2022/01/10 08:34:19;;;;;;;0.60;0.22;;;;;;;;;;5048977;28;20025;-63
2022/01/10 08:36:45;;;;;;;0.47;0.20;;;;;;;;;;5051655;28;20017;-64
2022/01/10 08:39:10;;;;;;;1.15;0.40;;;;;;;;;;5049616;28;20495;-63
2022/01/10 08:41:36;;;;;;;1.80;0.40;;;;;;;;;;5047158;28;20342;-64
2022/01/10 08:44:01;;;;;;;1.02;0.20;;;;;;;;;;5060879;28;20021;-65
2022/01/10 08:46:26;;;;;;;0.40;0.20;;;;;;;;;;5051840;28;20021;-64
2022/01/10 08:48:52;;;;;;;1.88;0.30;;;;;;;;;;5051487;28;20028;-65
2022/01/10 08:51:17;;;;;;;0.70;0.30;;;;;;;;;;5047015;28;20056;-65
2022/01/10 08:53:43;;;;;;;0.65;0.30;;;;;;;;;;5044625;28;20029;-67
2022/01/10 08:56:08;;;;;;;1.50;0.30;;;;;;;;;;5051243;28;20475;-65
2022/01/10 08:58:33;;;;;;;1.10;0.20;;;;;;;;;;5067564;28;20295;-65
2022/01/10 09:00:59;;;;;;;0.60;0.30;;;;;;;;;;5075214;28;20462;-65
2022/01/10 09:03:24;;;;;;;0.52;0.35;;;;;;;;;;5055703;28;20258;-63
2022/01/10 09:05:49;;;;;;;0.67;0.13;;;;;;;;;;5054929;28;20048;-65
2022/01/10 09:08:14;;;;;;;0.75;0.25;;;;;;;;;;5053863;28;20033;-65
2022/01/10 09:10:40;;;;;;;0.50;0.10;;;;;;;;;;5051922;28;20412;-65
2022/01/10 09:13:07;;;;;;;1.05;0.30;;;;;;;;;;5064626;28;20743;-64
2022/01/10 09:15:32;;;;;;;0.47;0.25;;;;;;;;;;5069157;28;20431;-64
2022/01/10 09:17:58;;;;;;;0.95;0.20;;;;;;;;;;5054615;28;20021;-64
2022/01/10 09:20:23;;;;;;;0.85;0.20;;;;;;;;;;5053887;28;20032;-64
2022/01/10 09:22:48;;;;;;;0.88;0.35;;;;;;;;;;5052178;28;20028;-64
2022/01/10 09:25:13;;;;;;;1.70;0.30;;;;;;;;;;5052078;28;20025;-66
2022/01/10 09:27:39;;;;;;;0.70;0.30;;;;;;;;;;5070516;28;20119;-65
2022/01/10 09:30:05;;;;;;;0.40;0.20;;;;;;;;;;5049212;28;20035;-64
2022/01/10 09:32:30;;;;;;;0.52;0.20;;;;;;;;;;5050239;28;20029;-64
2022/01/10 09:34:55;;;;;;;0.63;0.20;;;;;;;;;;5054280;28;20039;-66
2022/01/10 09:37:22;;;;;;;1.13;0.38;;;;;;;;;;5051578;28;20055;-66
2022/01/10 09:39:47;;;;;;;1.08;0.30;;;;;;;;;;5051772;28;20032;-65
2022/01/10 09:42:12;;;;;;;0.40;0.20;;;;;;;;;;5053631;28;20391;-66
2022/01/10 09:44:38;;;;;;;0.10;0.10;;;;;;;;;;5053136;28;20021;-65
2022/01/10 09:47:03;;;;;;;1.23;0.25;;;;;;;;;;5052773;28;20040;-64
2022/01/10 09:49:28;;;;;;;0.95;0.20;;;;;;;;;;5050449;28;20063;-64
2022/01/10 09:51:54;;;;;;;0.60;0.37;;;;;;;;;;5053290;28;20465;-64
2022/01/10 09:54:19;;;;;;;0.85;0.22;;;;;;;;;;5053868;28;20313;-63
2022/01/10 09:56:47;;;;;;;0.73;0.20;;;;;;;;;;5052609;28;20493;-63
2022/01/10 09:59:12;;;;;;;1.63;0.20;;;;;;;;;;5052754;28;20491;-64
2022/01/10 10:01:37;;;;;;;0.98;0.30;;;;;;;;;;5053991;28;20020;-65
2022/01/10 10:04:03;;;;;;;3.30;0.50;;;;;;;;;;5052665;28;20013;-65
2022/01/10 10:06:29;;;;;;;2.97;0.52;;;;;;;;;;5052844;28;20024;-64
2022/01/10 10:08:58;;;;;;;1.92;0.35;;;;;;;;;;5051599;28;20024;-63
2022/01/10 10:11:34;;;;;;;0.40;0.20;;;;;;;;;;5053286;28;20433;-63
2022/01/10 10:14:03;;;;;;;2.05;0.63;;;;;;;;;;5054384;28;20055;-63
2022/01/10 10:16:31;;;;;;;0.93;0.40;;;;;;;;;;5050915;28;20455;-63
2022/01/10 10:18:56;;;;;;;2.80;0.50;;;;;;;;;;5052246;28;20028;-64
2022/01/10 10:21:21;;;;;;;4.55;1.15;;;;;;;;;;5052378;28;20017;-62
2022/01/10 10:23:48;;;;;;;1.55;0.30;;;;;;;;;;5050608;28;20033;-62
2022/01/10 10:26:17;;;;;;;3.75;0.50;;;;;;;;;;5049672;28;20021;-61
2022/01/10 10:28:44;;;;;;;5.00;0.70;;;;;;;;;;5046692;28;20024;-61
2022/01/10 10:31:09;;;;;;;3.00;0.45;;;;;;;;;;5053669;28;20029;-62
2022/01/10 10:33:34;;;;;;;2.00;0.52;;;;;;;;;;5050338;28;20021;-62
2022/01/10 10:36:07;;;;;;;3.20;0.50;;;;;;;;;;5055047;28;20029;-62
2022/01/10 10:38:33;;;;;;;2.30;0.65;;;;;;;;;;5052177;28;20029;-64
2022/01/10 10:41:02;;;;;;;1.48;0.50;;;;;;;;;;5050894;28;20013;-64
2022/01/10 10:43:31;;;;;;;2.17;0.55;;;;;;;;;;5051503;28;20025;-62
2022/01/10 10:45:58;;;;;;;3.08;0.68;;;;;;;;;;5051759;28;20025;-64
2022/01/10 10:48:24;;;;;;;4.43;0.47;;;;;;;;;;5052803;28;20032;-65
2022/01/10 10:50:49;;;;;;;1.30;0.40;;;;;;;;;;5051821;28;20035;-63
2022/01/10 10:53:14;;;;;;;5.78;0.98;;;;;;;;;;5050714;28;20056;-65
2022/01/10 10:55:43;;;;;;;3.05;0.68;;;;;;;;;;5052913;28;20055;-66
2022/01/10 10:58:09;;;;;;;2.47;0.80;;;;;;;;;;5050310;28;20017;-66
2022/01/10 11:00:34;;;;;;;2.80;0.75;;;;;;;;;;5051860;28;20025;-67
2022/01/10 11:03:00;;;;;;;3.95;0.52;;;;;;;;;;5051586;28;20033;-65
2022/01/10 11:05:25;;;;;;;1.13;0.50;;;;;;;;;;5049814;28;20053;-61
2022/01/10 11:07:51;;;;;;;3.25;0.88;;;;;;;;;;5059019;28;20033;-64
2022/01/10 11:10:16;;;;;;;2.53;1.00;;;;;;;;;;5052290;28;20127;-65
2022/01/10 11:12:44;;;;;;;4.13;0.95;;;;;;;;;;5052370;28;20096;-64
2022/01/10 11:15:09;;;;;;;1.42;0.40;;;;;;;;;;5051447;28;20025;-65
2022/01/10 11:17:34;;;;;;;1.98;0.50;;;;;;;;;;5050330;28;20047;-64
2022/01/10 11:20:06;;;;;;;2.73;0.70;;;;;;;;;;5064750;28;20024;-65
2022/01/10 11:22:31;;;;;;;1.92;1.08;;;;;;;;;;5051945;28;20737;-65
2022/01/10 11:24:56;;;;;;;0.60;0.30;;;;;;;;;;5050639;28;20048;-64
2022/01/10 11:27:29;;;;;;;0.50;0.40;;;;;;;;;;5051792;28;20266;-64
2022/01/10 11:29:56;;;;;;;1.60;0.35;;;;;;;;;;5052355;28;20460;-66
2022/01/10 11:32:41;;;;;;;1.10;0.30;;;;;;;;;;5050933;28;20031;-65
2022/01/10 11:35:07;;;;;;;0.85;0.50;;;;;;;;;;5047346;28;20380;-66
2022/01/10 11:37:32;;;;;;;2.15;0.35;;;;;;;;;;5046433;28;20016;-65
2022/01/10 11:39:57;;;;;;;1.85;0.30;;;;;;;;;;5048464;28;20020;-64
2022/01/10 11:42:23;;;;;;;0.20;0.20;;;;;;;;;;5042279;28;20034;-64
2022/01/10 11:45:07;;;;;;;0.68;0.32;;;;;;;;;;5051602;28;20630;-66
2022/01/10 11:47:52;;;;;;;0.90;0.40;;;;;;;;;;5048013;28;20028;-64
2022/01/10 11:50:26;;;;;;;1.38;0.40;;;;;;;;;;5048484;28;20361;-64
2022/01/10 11:52:55;;;;;;;1.77;0.65;;;;;;;;;;5044184;28;20099;-70
2022/01/10 11:55:38;;;;;;;1.10;0.30;;;;;;;;;;5049604;28;20025;-70
2022/01/10 11:58:17;;;;;;;1.25;0.35;;;;;;;;;;5056076;28;20024;-71
2022/01/10 12:00:42;;;;;;;0.70;0.20;;;;;;;;;;5054617;28;20411;-70
2022/01/10 12:03:07;;;;;;;0.57;0.43;;;;;;;;;;5048206;28;20021;-70
2022/01/10 12:05:33;;;;;;;0.50;0.20;;;;;;;;;;5051168;28;20076;-70
2022/01/10 12:07:58;;;;;;;1.23;0.40;;;;;;;;;;5049431;28;20129;-71
2022/01/10 12:10:23;;;;;;;1.00;0.40;;;;;;;;;;5051551;28;20728;-71
2022/01/10 12:12:53;;;;;;;0.90;0.28;;;;;;;;;;5035919;28;20072;-72
2022/01/10 12:15:19;;;;;;;0.90;0.17;;;;;;;;;;5050232;28;20071;-70
2022/01/10 12:17:44;;;;;;;1.92;0.45;;;;;;;;;;5050357;28;20017;-71
2022/01/10 12:20:09;;;;;;;1.13;0.20;;;;;;;;;;5049718;28;20029;-69
2022/01/10 12:22:34;;;;;;;0.63;0.17;;;;;;;;;;5049524;28;20282;-70
2022/01/10 12:25:01;;;;;;;0.70;0.23;;;;;;;;;;5049837;28;20057;-71
2022/01/10 12:27:26;;;;;;;1.08;0.57;;;;;;;;;;5050583;28;20355;-70
2022/01/10 12:29:52;;;;;;;0.67;0.30;;;;;;;;;;5058902;28;20468;-68
2022/01/10 12:32:17;;;;;;;1.05;0.30;;;;;;;;;;5054927;28;20254;-69
2022/01/10 12:34:44;;;;;;;2.10;0.20;;;;;;;;;;5052633;28;20032;-71
2022/01/10 12:37:10;;;;;;;1.17;0.15;;;;;;;;;;5052392;28;20327;-68
2022/01/10 12:39:36;;;;;;;1.30;0.15;;;;;;;;;;5053471;28;20418;-73
2022/01/10 12:42:02;;;;;;;1.48;0.40;;;;;;;;;;5053309;28;20021;-73
2022/01/10 12:44:27;;;;;;;0.68;0.20;;;;;;;;;;5053022;28;20029;-70
2022/01/10 12:46:53;;;;;;;0.93;0.30;;;;;;;;;;5057568;28;20021;-69
2022/01/10 12:49:18;;;;;;;0.55;0.32;;;;;;;;;;5054173;28;20116;-70
2022/01/10 12:51:45;;;;;;;0.70;0.20;;;;;;;;;;5055332;28;20095;-70
2022/01/10 12:54:15;;;;;;;0.80;0.30;;;;;;;;;;5055900;28;20017;-70
2022/01/10 12:56:41;;;;;;;1.33;0.30;;;;;;;;;;5056524;28;20024;-72
2022/01/10 12:59:06;;;;;;;2.70;0.70;;;;;;;;;;5052115;28;20021;-73
2022/01/10 13:01:31;;;;;;;1.45;0.30;;;;;;;;;;5053207;28;20031;-70
2022/01/10 13:03:59;;;;;;;1.35;0.30;;;;;;;;;;5057748;28;20031;-69
2022/01/10 13:06:30;;;;;;;1.48;0.43;;;;;;;;;;5053544;28;20384;-71
2022/01/10 13:08:55;;;;;;;1.88;0.43;;;;;;;;;;5064710;28;20024;-71
2022/01/10 13:11:23;;;;;;;0.60;0.30;;;;;;;;;;5066978;28;20479;-68
2022/01/10 13:13:48;;;;;;;0.30;0.30;;;;;;;;;;5054173;28;20031;-69
2022/01/10 13:16:23;;;;;;;0.65;0.20;;;;;;;;;;5065597;28;20021;-69
2022/01/10 13:18:59;;;;;;;0.65;0.30;;;;;;;;;;5055557;28;20021;-69
2022/01/10 13:21:27;;;;;;;1.05;0.30;;;;;;;;;;5062636;28;20024;-69
2022/01/10 13:24:12;;;;;;;0.50;0.13;;;;;;;;;;5058241;28;20013;-68
2022/01/10 13:26:56;;;;;;;1.80;0.45;;;;;;;;;;5059278;28;20131;-67
2022/01/10 13:29:39;;;;;;;1.33;0.40;;;;;;;;;;5053692;28;20025;-67
2022/01/10 13:32:23;;;;;;;0.85;0.60;;;;;;;;;;5056579;28;20404;-67
2022/01/10 13:34:50;;;;;;;0.57;0.20;;;;;;;;;;5051324;28;20032;-67
2022/01/10 13:37:27;;;;;;;1.15;0.20;;;;;;;;;;5043791;28;20478;-67
2022/01/10 13:40:19;;;;;;;1.13;0.35;;;;;;;;;;5052380;28;20075;-65
2022/01/10 13:42:50;;;;;;;0.52;0.28;;;;;;;;;;5043293;28;20567;-67
2022/01/10 13:45:17;;;;;;;0.30;0.20;;;;;;;;;;5049255;28;20523;-66
2022/01/10 13:47:54;;;;;;;0.75;0.35;;;;;;;;;;5048600;28;20115;-63
2022/01/10 13:50:21;;;;;;;1.48;0.73;;;;;;;;;;5052632;28;20021;-62
2022/01/10 13:52:59;;;;;;;1.15;0.35;;;;;;;;;;5053231;28;20535;-62
2022/01/10 13:55:24;;;;;;;1.65;0.30;;;;;;;;;;5051026;28;20040;-61
2022/01/10 13:57:49;;;;;;;0.55;0.20;;;;;;;;;;5051787;28;20037;-60
2022/01/10 14:00:19;;;;;;;1.30;0.45;;;;;;;;;;5052130;28;20031;-58
2022/01/10 14:02:44;;;;;;;2.15;0.52;;;;;;;;;;5052699;28;20023;-61
2022/01/10 14:05:20;;;;;;;1.58;0.40;;;;;;;;;;5052931;28;20362;-60
2022/01/10 14:07:45;;;;;;;1.45;0.38;;;;;;;;;;5052032;28;20518;-63
2022/01/10 14:10:10;;;;;;;2.40;0.50;;;;;;;;;;5049848;28;20024;-65
2022/01/10 14:12:35;;;;;;;1.03;0.20;;;;;;;;;;5051592;28;20269;-63
2022/01/10 14:15:01;;;;;;;1.20;0.40;;;;;;;;;;5050135;28;20764;-62
2022/01/10 14:17:26;;;;;;;0.73;0.22;;;;;;;;;;5052049;28;20281;-61
2022/01/10 14:19:51;;;;;;;1.23;0.40;;;;;;;;;;5049701;28;20120;-63
2022/01/10 14:22:16;;;;;;;1.73;0.50;;;;;;;;;;5049625;28;20024;-62
2022/01/10 14:24:42;;;;;;;1.20;0.28;;;;;;;;;;5050754;28;20033;-71
2022/01/10 14:27:07;;;;;;;1.88;0.50;;;;;;;;;;5057762;28;20429;-66
2022/01/10 14:29:32;;;;;;;1.20;0.30;;;;;;;;;;5045709;28;20035;-65
2022/01/10 14:31:57;;;;;;;1.90;0.30;;;;;;;;;;5049244;28;20275;-68
2022/01/10 14:34:23;;;;;;;0.90;0.40;;;;;;;;;;5048503;28;20245;-71
2022/01/10 14:36:48;;;;;;;3.50;0.67;;;;;;;;;;5050753;28;20361;-72
2022/01/10 14:39:13;;;;;;;0.50;0.20;;;;;;;;;;5052475;28;20277;-72
2022/01/10 14:41:38;;;;;;;0.85;0.20;;;;;;;;;;5053597;28;20327;-71
2022/01/10 14:44:04;;;;;;;0.97;0.30;;;;;;;;;;5049096;28;20112;-72
2022/01/10 14:46:29;;;;;;;2.47;0.32;;;;;;;;;;5050567;28;20269;-73